sensor_id;sensor_type;location;lat;lon;timestamp;temperature;humidity
25342;DHT22;13298;48.792;9.154;2022-07-06T00:01:29;16.40;94.00
25342;DHT22;13298;48.792;9.154;2022-07-06T00:03:55;16.40;94.00
25342;DHT22;13298;48.792;9.154;2022-07-06T00:06:21;16.30;94.40
25342;DHT22;13298;48.792;9.154;2022-07-06T00:08:47;16.20;94.30
25342;DHT22;13298;48.792;9.154;2022-07-06T00:11:12;16.20;94.80
25342;DHT22;13298;48.792;9.154;2022-07-06T00:13:38;16.20;95.70
25342;DHT22;13298;48.792;9.154;2022-07-06T00:16:04;16.20;95.50
25342;DHT22;13298;48.792;9.154;2022-07-06T00:18:30;16.20;96.10
25342;DHT22;13298;48.792;9.154;2022-07-06T00:20:56;16.10;96.50
25342;DHT22;13298;48.792;9.154;2022-07-06T00:23:22;16.10;96.00
25342;DHT22;13298;48.792;9.154;2022-07-06T00:25:47;16.00;96.30
25342;DHT22;13298;48.792;9.154;2022-07-06T00:28:14;16.00;97.30
25342;DHT22;13298;48.792;9.154;2022-07-06T00:30:40;16.00;96.50
25342;DHT22;13298;48.792;9.154;2022-07-06T00:33:06;16.00;96.50
25342;DHT22;13298;48.792;9.154;2022-07-06T00:35:32;15.90;96.90
25342;DHT22;13298;48.792;9.154;2022-07-06T00:37:58;15.90;97.70
25342;DHT22;13298;48.792;9.154;2022-07-06T00:40:23;15.80;97.00
25342;DHT22;13298;48.792;9.154;2022-07-06T00:42:49;15.80;97.70
25342;DHT22;13298;48.792;9.154;2022-07-06T00:45:16;15.70;97.50
25342;DHT22;13298;48.792;9.154;2022-07-06T00:47:43;15.70;97.90
25342;DHT22;13298;48.792;9.154;2022-07-06T00:50:14;15.70;98.20
25342;DHT22;13298;48.792;9.154;2022-07-06T00:52:49;15.80;97.50
25342;DHT22;13298;48.792;9.154;2022-07-06T00:55:25;15.70;98.30
25342;DHT22;13298;48.792;9.154;2022-07-06T00:57:52;15.70;99.20
25342;DHT22;13298;48.792;9.154;2022-07-06T01:00:22;15.70;98.10
25342;DHT22;13298;48.792;9.154;2022-07-06T01:02:49;15.70;98.70
25342;DHT22;13298;48.792;9.154;2022-07-06T01:05:16;15.60;98.90
25342;DHT22;13298;48.792;9.154;2022-07-06T01:07:45;15.60;97.90
25342;DHT22;13298;48.792;9.154;2022-07-06T01:10:13;15.70;98.20
25342;DHT22;13298;48.792;9.154;2022-07-06T01:12:42;15.70;98.70
25342;DHT22;13298;48.792;9.154;2022-07-06T01:15:11;15.70;98.30
25342;DHT22;13298;48.792;9.154;2022-07-06T01:17:39;15.70;98.00
25342;DHT22;13298;48.792;9.154;2022-07-06T01:20:25;15.60;98.90
25342;DHT22;13298;48.792;9.154;2022-07-06T01:22:53;15.60;98.70
25342;DHT22;13298;48.792;9.154;2022-07-06T01:25:20;15.60;98.60
25342;DHT22;13298;48.792;9.154;2022-07-06T01:27:47;15.70;97.80
25342;DHT22;13298;48.792;9.154;2022-07-06T01:30:18;15.70;97.60
25342;DHT22;13298;48.792;9.154;2022-07-06T01:32:44;15.70;97.00
25342;DHT22;13298;48.792;9.154;2022-07-06T01:35:14;15.80;97.50
25342;DHT22;13298;48.792;9.154;2022-07-06T01:37:41;15.80;97.40
25342;DHT22;13298;48.792;9.154;2022-07-06T01:40:09;15.70;97.10
25342;DHT22;13298;48.792;9.154;2022-07-06T01:42:36;15.70;96.90
25342;DHT22;13298;48.792;9.154;2022-07-06T01:45:03;15.70;97.30
25342;DHT22;13298;48.792;9.154;2022-07-06T01:47:30;15.70;97.60
25342;DHT22;13298;48.792;9.154;2022-07-06T01:49:58;15.60;97.50
25342;DHT22;13298;48.792;9.154;2022-07-06T01:52:25;15.50;97.70
25342;DHT22;13298;48.792;9.154;2022-07-06T01:54:51;15.50;97.10
25342;DHT22;13298;48.792;9.154;2022-07-06T01:57:17;15.50;97.70
25342;DHT22;13298;48.792;9.154;2022-07-06T01:59:43;15.40;97.40
25342;DHT22;13298;48.792;9.154;2022-07-06T02:02:08;15.40;97.50
25342;DHT22;13298;48.792;9.154;2022-07-06T02:04:34;15.30;97.30
25342;DHT22;13298;48.792;9.154;2022-07-06T02:07:00;15.30;97.70
25342;DHT22;13298;48.792;9.154;2022-07-06T02:09:27;15.20;97.80
25342;DHT22;13298;48.792;9.154;2022-07-06T02:11:52;15.30;97.30
25342;DHT22;13298;48.792;9.154;2022-07-06T02:14:18;15.30;97.80
25342;DHT22;13298;48.792;9.154;2022-07-06T02:16:44;15.30;97.70
25342;DHT22;13298;48.792;9.154;2022-07-06T02:19:09;15.20;97.80
25342;DHT22;13298;48.792;9.154;2022-07-06T02:21:36;15.20;97.80
25342;DHT22;13298;48.792;9.154;2022-07-06T02:24:02;15.10;98.30
25342;DHT22;13298;48.792;9.154;2022-07-06T02:26:27;15.10;98.10
25342;DHT22;13298;48.792;9.154;2022-07-06T02:28:53;15.00;98.40
25342;DHT22;13298;48.792;9.154;2022-07-06T02:31:19;15.00;98.60
25342;DHT22;13298;48.792;9.154;2022-07-06T02:33:44;15.00;99.00
25342;DHT22;13298;48.792;9.154;2022-07-06T02:36:10;14.90;99.10
25342;DHT22;13298;48.792;9.154;2022-07-06T02:38:36;14.90;99.10
25342;DHT22;13298;48.792;9.154;2022-07-06T02:41:02;14.90;99.40
25342;DHT22;13298;48.792;9.154;2022-07-06T02:43:27;14.80;99.40
25342;DHT22;13298;48.792;9.154;2022-07-06T02:45:53;14.80;99.40
25342;DHT22;13298;48.792;9.154;2022-07-06T02:48:19;14.80;99.70
25342;DHT22;13298;48.792;9.154;2022-07-06T02:50:46;14.70;99.70
25342;DHT22;13298;48.792;9.154;2022-07-06T02:53:12;14.70;99.60
25342;DHT22;13298;48.792;9.154;2022-07-06T02:55:38;14.70;99.90
25342;DHT22;13298;48.792;9.154;2022-07-06T02:58:04;14.70;99.90
25342;DHT22;13298;48.792;9.154;2022-07-06T03:00:30;14.70;99.90
25342;DHT22;13298;48.792;9.154;2022-07-06T03:02:55;14.70;99.90
25342;DHT22;13298;48.792;9.154;2022-07-06T03:05:21;14.70;99.90
25342;DHT22;13298;48.792;9.154;2022-07-06T03:07:47;14.70;99.90
25342;DHT22;13298;48.792;9.154;2022-07-06T03:10:13;14.60;99.90
25342;DHT22;13298;48.792;9.154;2022-07-06T03:12:38;14.60;99.90
25342;DHT22;13298;48.792;9.154;2022-07-06T03:15:04;14.60;99.90
25342;DHT22;13298;48.792;9.154;2022-07-06T03:17:30;14.50;99.90
25342;DHT22;13298;48.792;9.154;2022-07-06T03:19:56;14.50;99.90
25342;DHT22;13298;48.792;9.154;2022-07-06T03:22:21;14.50;99.90
25342;DHT22;13298;48.792;9.154;2022-07-06T03:24:47;14.50;99.90
25342;DHT22;13298;48.792;9.154;2022-07-06T03:27:14;14.50;99.90
25342;DHT22;13298;48.792;9.154;2022-07-06T03:29:40;14.40;99.90
25342;DHT22;13298;48.792;9.154;2022-07-06T03:32:06;14.40;99.90
25342;DHT22;13298;48.792;9.154;2022-07-06T03:34:32;14.40;99.90
25342;DHT22;13298;48.792;9.154;2022-07-06T03:36:58;14.40;99.90
25342;DHT22;13298;48.792;9.154;2022-07-06T03:39:23;14.40;99.90
25342;DHT22;13298;48.792;9.154;2022-07-06T03:41:49;14.40;99.90
25342;DHT22;13298;48.792;9.154;2022-07-06T03:44:15;14.40;99.90
25342;DHT22;13298;48.792;9.154;2022-07-06T03:46:40;14.40;99.90
25342;DHT22;13298;48.792;9.154;2022-07-06T03:49:06;14.40;99.90
25342;DHT22;13298;48.792;9.154;2022-07-06T03:51:32;14.40;99.90
25342;DHT22;13298;48.792;9.154;2022-07-06T03:53:58;14.30;99.90
25342;DHT22;13298;48.792;9.154;2022-07-06T03:56:23;14.40;99.90
25342;DHT22;13298;48.792;9.154;2022-07-06T03:58:56;14.40;99.90
25342;DHT22;13298;48.792;9.154;2022-07-06T04:01:22;14.40;99.90
25342;DHT22;13298;48.792;9.154;2022-07-06T04:03:48;14.40;99.90
25342;DHT22;13298;48.792;9.154;2022-07-06T04:06:14;14.40;99.90
25342;DHT22;13298;48.792;9.154;2022-07-06T04:08:40;14.50;99.90
25342;DHT22;13298;48.792;9.154;2022-07-06T04:11:05;14.50;99.90
25342;DHT22;13298;48.792;9.154;2022-07-06T04:13:31;14.50;99.90
25342;DHT22;13298;48.792;9.154;2022-07-06T04:15:57;14.50;99.90
25342;DHT22;13298;48.792;9.154;2022-07-06T04:18:23;14.50;99.90
25342;DHT22;13298;48.792;9.154;2022-07-06T04:20:49;14.60;99.90
25342;DHT22;13298;48.792;9.154;2022-07-06T04:23:15;14.70;99.90
25342;DHT22;13298;48.792;9.154;2022-07-06T04:25:41;14.70;99.90
25342;DHT22;13298;48.792;9.154;2022-07-06T04:28:06;14.70;99.90
25342;DHT22;13298;48.792;9.154;2022-07-06T04:30:32;14.70;99.90
25342;DHT22;13298;48.792;9.154;2022-07-06T04:32:58;14.80;99.90
25342;DHT22;13298;48.792;9.154;2022-07-06T04:35:24;14.80;99.90
25342;DHT22;13298;48.792;9.154;2022-07-06T04:37:49;14.80;99.90
25342;DHT22;13298;48.792;9.154;2022-07-06T04:40:15;14.90;99.90
25342;DHT22;13298;48.792;9.154;2022-07-06T04:42:41;14.90;99.90
25342;DHT22;13298;48.792;9.154;2022-07-06T04:45:07;14.90;99.90
25342;DHT22;13298;48.792;9.154;2022-07-06T04:47:34;15.00;99.90
25342;DHT22;13298;48.792;9.154;2022-07-06T04:50:00;15.00;99.90
25342;DHT22;13298;48.792;9.154;2022-07-06T04:52:26;15.00;99.90
25342;DHT22;13298;48.792;9.154;2022-07-06T04:54:53;15.10;99.90
25342;DHT22;13298;48.792;9.154;2022-07-06T04:57:19;15.10;99.90
25342;DHT22;13298;48.792;9.154;2022-07-06T04:59:45;15.20;99.90
25342;DHT22;13298;48.792;9.154;2022-07-06T05:02:10;15.20;99.90
25342;DHT22;13298;48.792;9.154;2022-07-06T05:04:36;15.20;99.90
25342;DHT22;13298;48.792;9.154;2022-07-06T05:07:02;15.30;99.90
25342;DHT22;13298;48.792;9.154;2022-07-06T05:09:28;15.40;99.90
25342;DHT22;13298;48.792;9.154;2022-07-06T05:11:54;15.60;99.90
25342;DHT22;13298;48.792;9.154;2022-07-06T05:14:20;15.90;99.90
25342;DHT22;13298;48.792;9.154;2022-07-06T05:16:45;16.40;99.90
25342;DHT22;13298;48.792;9.154;2022-07-06T05:19:11;17.20;99.90
25342;DHT22;13298;48.792;9.154;2022-07-06T05:21:37;18.00;99.70
25342;DHT22;13298;48.792;9.154;2022-07-06T05:24:03;18.70;98.20
25342;DHT22;13298;48.792;9.154;2022-07-06T05:26:29;19.30;97.00
25342;DHT22;13298;48.792;9.154;2022-07-06T05:28:54;19.70;95.40
25342;DHT22;13298;48.792;9.154;2022-07-06T05:31:20;20.00;94.90
25342;DHT22;13298;48.792;9.154;2022-07-06T05:33:46;20.20;94.50
25342;DHT22;13298;48.792;9.154;2022-07-06T05:36:11;20.20;93.80
25342;DHT22;13298;48.792;9.154;2022-07-06T05:38:37;20.10;94.30
25342;DHT22;13298;48.792;9.154;2022-07-06T05:41:03;19.70;94.70
25342;DHT22;13298;48.792;9.154;2022-07-06T05:43:28;19.30;95.00
25342;DHT22;13298;48.792;9.154;2022-07-06T05:45:54;19.00;95.90
25342;DHT22;13298;48.792;9.154;2022-07-06T05:48:20;18.70;96.60
25342;DHT22;13298;48.792;9.154;2022-07-06T05:51:04;18.50;96.90
25342;DHT22;13298;48.792;9.154;2022-07-06T05:53:30;18.10;97.90
25342;DHT22;13298;48.792;9.154;2022-07-06T05:55:56;17.90;98.70
25342;DHT22;13298;48.792;9.154;2022-07-06T05:58:22;17.60;98.00
25342;DHT22;13298;48.792;9.154;2022-07-06T06:00:49;17.50;98.60
25342;DHT22;13298;48.792;9.154;2022-07-06T06:03:15;17.40;99.10
25342;DHT22;13298;48.792;9.154;2022-07-06T06:05:41;17.60;99.40
25342;DHT22;13298;48.792;9.154;2022-07-06T06:08:06;17.80;99.40
25342;DHT22;13298;48.792;9.154;2022-07-06T06:10:32;18.00;99.40
25342;DHT22;13298;48.792;9.154;2022-07-06T06:12:58;18.20;97.70
25342;DHT22;13298;48.792;9.154;2022-07-06T06:15:24;18.40;98.10
25342;DHT22;13298;48.792;9.154;2022-07-06T06:17:50;18.60;97.70
25342;DHT22;13298;48.792;9.154;2022-07-06T06:20:15;18.80;97.60
25342;DHT22;13298;48.792;9.154;2022-07-06T06:22:52;19.00;96.90
25342;DHT22;13298;48.792;9.154;2022-07-06T06:25:21;19.10;97.30
25342;DHT22;13298;48.792;9.154;2022-07-06T06:27:53;19.40;96.40
25342;DHT22;13298;48.792;9.154;2022-07-06T06:30:18;19.60;95.30
25342;DHT22;13298;48.792;9.154;2022-07-06T06:32:44;19.90;94.90
25342;DHT22;13298;48.792;9.154;2022-07-06T06:35:10;20.10;94.60
25342;DHT22;13298;48.792;9.154;2022-07-06T06:37:36;20.30;94.30
25342;DHT22;13298;48.792;9.154;2022-07-06T06:40:04;20.30;93.80
25342;DHT22;13298;48.792;9.154;2022-07-06T06:42:30;20.30;94.00
25342;DHT22;13298;48.792;9.154;2022-07-06T06:44:56;20.20;93.70
25342;DHT22;13298;48.792;9.154;2022-07-06T06:47:22;20.10;94.10
25342;DHT22;13298;48.792;9.154;2022-07-06T06:49:47;20.10;94.30
25342;DHT22;13298;48.792;9.154;2022-07-06T06:52:13;20.10;94.00
25342;DHT22;13298;48.792;9.154;2022-07-06T06:54:39;20.20;93.60
25342;DHT22;13298;48.792;9.154;2022-07-06T06:57:05;20.30;93.50
25342;DHT22;13298;48.792;9.154;2022-07-06T06:59:31;20.20;93.20
25342;DHT22;13298;48.792;9.154;2022-07-06T07:01:56;20.20;93.60
25342;DHT22;13298;48.792;9.154;2022-07-06T07:04:23;20.20;93.60
25342;DHT22;13298;48.792;9.154;2022-07-06T07:06:48;20.30;93.50
25342;DHT22;13298;48.792;9.154;2022-07-06T07:09:14;20.40;93.30
25342;DHT22;13298;48.792;9.154;2022-07-06T07:11:40;20.50;92.90
25342;DHT22;13298;48.792;9.154;2022-07-06T07:14:06;20.40;91.60
25342;DHT22;13298;48.792;9.154;2022-07-06T07:16:31;20.40;91.80
25342;DHT22;13298;48.792;9.154;2022-07-06T07:18:57;20.20;92.00
25342;DHT22;13298;48.792;9.154;2022-07-06T07:21:23;20.10;92.10
25342;DHT22;13298;48.792;9.154;2022-07-06T07:23:48;20.00;92.90
25342;DHT22;13298;48.792;9.154;2022-07-06T07:26:15;20.00;92.60
25342;DHT22;13298;48.792;9.154;2022-07-06T07:28:41;20.00;92.90
25342;DHT22;13298;48.792;9.154;2022-07-06T07:31:07;20.00;92.70
25342;DHT22;13298;48.792;9.154;2022-07-06T07:33:33;20.10;93.00
25342;DHT22;13298;48.792;9.154;2022-07-06T07:35:59;20.10;92.20
25342;DHT22;13298;48.792;9.154;2022-07-06T07:38:25;20.00;91.40
25342;DHT22;13298;48.792;9.154;2022-07-06T07:40:53;20.00;91.50
25342;DHT22;13298;48.792;9.154;2022-07-06T07:43:19;20.00;92.20
25342;DHT22;13298;48.792;9.154;2022-07-06T07:45:46;19.90;92.70
25342;DHT22;13298;48.792;9.154;2022-07-06T07:48:12;19.90;92.00
25342;DHT22;13298;48.792;9.154;2022-07-06T07:50:39;19.90;92.20
25342;DHT22;13298;48.792;9.154;2022-07-06T07:53:04;19.90;93.00
25342;DHT22;13298;48.792;9.154;2022-07-06T07:55:30;20.00;92.80
25342;DHT22;13298;48.792;9.154;2022-07-06T07:57:56;20.10;92.50
25342;DHT22;13298;48.792;9.154;2022-07-06T08:00:21;20.30;92.20
25342;DHT22;13298;48.792;9.154;2022-07-06T08:02:47;20.30;91.80
25342;DHT22;13298;48.792;9.154;2022-07-06T08:05:13;20.40;93.00
25342;DHT22;13298;48.792;9.154;2022-07-06T08:07:42;20.50;92.00
25342;DHT22;13298;48.792;9.154;2022-07-06T08:10:08;20.50;92.10
25342;DHT22;13298;48.792;9.154;2022-07-06T08:12:35;20.50;91.60
25342;DHT22;13298;48.792;9.154;2022-07-06T08:15:01;20.40;91.50
25342;DHT22;13298;48.792;9.154;2022-07-06T08:17:27;20.40;92.00
25342;DHT22;13298;48.792;9.154;2022-07-06T08:19:53;20.50;91.70
25342;DHT22;13298;48.792;9.154;2022-07-06T08:22:18;20.50;91.50
25342;DHT22;13298;48.792;9.154;2022-07-06T08:24:44;20.40;91.90
25342;DHT22;13298;48.792;9.154;2022-07-06T08:27:10;20.40;91.80
25342;DHT22;13298;48.792;9.154;2022-07-06T08:29:35;20.40;92.00
25342;DHT22;13298;48.792;9.154;2022-07-06T08:32:01;20.50;91.90
25342;DHT22;13298;48.792;9.154;2022-07-06T08:34:27;20.50;92.10
25342;DHT22;13298;48.792;9.154;2022-07-06T08:36:52;20.70;92.50
25342;DHT22;13298;48.792;9.154;2022-07-06T08:39:18;20.80;92.30
25342;DHT22;13298;48.792;9.154;2022-07-06T08:41:44;20.80;92.20
25342;DHT22;13298;48.792;9.154;2022-07-06T08:44:17;20.90;91.70
25342;DHT22;13298;48.792;9.154;2022-07-06T08:46:44;21.00;91.20
25342;DHT22;13298;48.792;9.154;2022-07-06T08:49:13;21.00;91.70
25342;DHT22;13298;48.792;9.154;2022-07-06T08:51:41;21.10;91.30
25342;DHT22;13298;48.792;9.154;2022-07-06T08:54:07;21.00;90.40
25342;DHT22;13298;48.792;9.154;2022-07-06T08:56:34;21.10;91.60
25342;DHT22;13298;48.792;9.154;2022-07-06T08:59:00;21.20;90.60
25342;DHT22;13298;48.792;9.154;2022-07-06T09:01:26;21.20;91.10
25342;DHT22;13298;48.792;9.154;2022-07-06T09:03:52;21.20;90.50
25342;DHT22;13298;48.792;9.154;2022-07-06T09:06:25;21.30;91.10
25342;DHT22;13298;48.792;9.154;2022-07-06T09:08:54;21.40;91.50
25342;DHT22;13298;48.792;9.154;2022-07-06T09:11:24;21.50;91.00
25342;DHT22;13298;48.792;9.154;2022-07-06T09:13:53;21.50;88.90
25342;DHT22;13298;48.792;9.154;2022-07-06T09:16:28;21.50;88.40
25342;DHT22;13298;48.792;9.154;2022-07-06T09:18:54;21.50;89.40
25342;DHT22;13298;48.792;9.154;2022-07-06T09:21:28;21.40;89.90
25342;DHT22;13298;48.792;9.154;2022-07-06T09:24:00;21.50;90.50
25342;DHT22;13298;48.792;9.154;2022-07-06T09:26:28;21.60;90.30
25342;DHT22;13298;48.792;9.154;2022-07-06T09:28:55;21.70;90.10
25342;DHT22;13298;48.792;9.154;2022-07-06T09:31:22;21.80;89.30
25342;DHT22;13298;48.792;9.154;2022-07-06T09:34:07;21.90;89.10
25342;DHT22;13298;48.792;9.154;2022-07-06T09:36:44;22.00;90.10
25342;DHT22;13298;48.792;9.154;2022-07-06T09:41:48;22.00;87.50
25342;DHT22;13298;48.792;9.154;2022-07-06T09:44:24;22.00;86.90
25342;DHT22;13298;48.792;9.154;2022-07-06T09:47:03;22.00;87.40
25342;DHT22;13298;48.792;9.154;2022-07-06T09:49:30;22.10;86.30
25342;DHT22;13298;48.792;9.154;2022-07-06T09:51:58;22.10;86.30
25342;DHT22;13298;48.792;9.154;2022-07-06T09:54:26;22.10;84.70
25342;DHT22;13298;48.792;9.154;2022-07-06T09:56:53;22.00;84.80
25342;DHT22;13298;48.792;9.154;2022-07-06T09:59:24;22.00;87.60
25342;DHT22;13298;48.792;9.154;2022-07-06T10:01:53;22.10;86.80
25342;DHT22;13298;48.792;9.154;2022-07-06T10:04:20;22.10;88.30
25342;DHT22;13298;48.792;9.154;2022-07-06T10:06:46;22.20;87.20
25342;DHT22;13298;48.792;9.154;2022-07-06T10:09:14;22.30;87.30
25342;DHT22;13298;48.792;9.154;2022-07-06T10:11:49;22.40;87.20
25342;DHT22;13298;48.792;9.154;2022-07-06T10:14:24;22.50;87.40
25342;DHT22;13298;48.792;9.154;2022-07-06T10:16:51;22.80;88.00
25342;DHT22;13298;48.792;9.154;2022-07-06T10:19:20;22.90;86.80
25342;DHT22;13298;48.792;9.154;2022-07-06T10:21:47;23.00;87.80
25342;DHT22;13298;48.792;9.154;2022-07-06T10:24:14;23.20;84.70
25342;DHT22;13298;48.792;9.154;2022-07-06T10:26:41;23.10;84.10
25342;DHT22;13298;48.792;9.154;2022-07-06T10:29:07;23.10;85.00
25342;DHT22;13298;48.792;9.154;2022-07-06T10:31:35;22.90;85.60
25342;DHT22;13298;48.792;9.154;2022-07-06T10:34:07;22.80;85.00
25342;DHT22;13298;48.792;9.154;2022-07-06T10:36:39;22.70;86.50
25342;DHT22;13298;48.792;9.154;2022-07-06T10:39:05;22.60;86.30
25342;DHT22;13298;48.792;9.154;2022-07-06T10:42:04;22.70;87.30
25342;DHT22;13298;48.792;9.154;2022-07-06T10:44:30;22.80;87.20
25342;DHT22;13298;48.792;9.154;2022-07-06T10:46:57;22.80;87.80
25342;DHT22;13298;48.792;9.154;2022-07-06T10:49:25;22.90;85.40
25342;DHT22;13298;48.792;9.154;2022-07-06T10:51:51;22.90;86.30
25342;DHT22;13298;48.792;9.154;2022-07-06T10:54:19;22.90;85.80
25342;DHT22;13298;48.792;9.154;2022-07-06T10:56:50;23.00;85.10
25342;DHT22;13298;48.792;9.154;2022-07-06T10:59:18;23.10;82.60
25342;DHT22;13298;48.792;9.154;2022-07-06T11:02:18;23.00;83.60
25342;DHT22;13298;48.792;9.154;2022-07-06T11:04:45;22.80;84.30
25342;DHT22;13298;48.792;9.154;2022-07-06T11:07:14;22.70;82.00
25342;DHT22;13298;48.792;9.154;2022-07-06T11:09:42;22.90;85.50
25342;DHT22;13298;48.792;9.154;2022-07-06T11:12:20;23.30;84.60
25342;DHT22;13298;48.792;9.154;2022-07-06T11:14:47;23.20;83.50
25342;DHT22;13298;48.792;9.154;2022-07-06T11:17:14;23.00;85.40
25342;DHT22;13298;48.792;9.154;2022-07-06T11:19:57;23.10;84.70
25342;DHT22;13298;48.792;9.154;2022-07-06T11:22:24;23.10;84.80
25342;DHT22;13298;48.792;9.154;2022-07-06T11:24:52;23.30;82.30
25342;DHT22;13298;48.792;9.154;2022-07-06T11:27:18;23.30;81.80
25342;DHT22;13298;48.792;9.154;2022-07-06T11:29:44;23.40;82.80
25342;DHT22;13298;48.792;9.154;2022-07-06T11:32:11;23.40;83.30
25342;DHT22;13298;48.792;9.154;2022-07-06T11:34:42;23.50;82.10
25342;DHT22;13298;48.792;9.154;2022-07-06T11:37:10;23.50;81.10
25342;DHT22;13298;48.792;9.154;2022-07-06T11:39:39;23.70;82.70
25342;DHT22;13298;48.792;9.154;2022-07-06T11:42:07;23.90;79.70
25342;DHT22;13298;48.792;9.154;2022-07-06T11:44:35;24.00;80.70
25342;DHT22;13298;48.792;9.154;2022-07-06T11:47:02;24.00;80.80
25342;DHT22;13298;48.792;9.154;2022-07-06T11:49:30;24.20;80.90
25342;DHT22;13298;48.792;9.154;2022-07-06T11:51:56;24.30;80.20
25342;DHT22;13298;48.792;9.154;2022-07-06T11:54:23;24.40;79.70
25342;DHT22;13298;48.792;9.154;2022-07-06T11:56:54;24.40;78.50
25342;DHT22;13298;48.792;9.154;2022-07-06T11:59:24;24.50;77.00
25342;DHT22;13298;48.792;9.154;2022-07-06T12:02:01;24.30;78.10
25342;DHT22;13298;48.792;9.154;2022-07-06T12:04:33;23.90;78.10
25342;DHT22;13298;48.792;9.154;2022-07-06T12:07:01;23.70;80.50
25342;DHT22;13298;48.792;9.154;2022-07-06T12:09:32;23.50;80.40
25342;DHT22;13298;48.792;9.154;2022-07-06T12:11:58;23.50;81.30
25342;DHT22;13298;48.792;9.154;2022-07-06T12:14:27;23.50;81.50
25342;DHT22;13298;48.792;9.154;2022-07-06T12:16:56;23.60;79.80
25342;DHT22;13298;48.792;9.154;2022-07-06T12:19:22;23.70;80.60
25342;DHT22;13298;48.792;9.154;2022-07-06T12:21:50;23.90;80.00
25342;DHT22;13298;48.792;9.154;2022-07-06T12:24:23;24.10;80.20
25342;DHT22;13298;48.792;9.154;2022-07-06T12:26:53;24.30;79.50
25342;DHT22;13298;48.792;9.154;2022-07-06T12:29:19;24.60;79.80
25342;DHT22;13298;48.792;9.154;2022-07-06T12:31:54;24.60;75.50
25342;DHT22;13298;48.792;9.154;2022-07-06T12:34:23;24.40;75.20
25342;DHT22;13298;48.792;9.154;2022-07-06T12:36:51;24.30;76.70
25342;DHT22;13298;48.792;9.154;2022-07-06T12:39:20;24.10;77.40
25342;DHT22;13298;48.792;9.154;2022-07-06T12:44:25;23.70;78.70
25342;DHT22;13298;48.792;9.154;2022-07-06T12:47:07;23.50;81.00
25342;DHT22;13298;48.792;9.154;2022-07-06T12:49:35;23.40;80.90
25342;DHT22;13298;48.792;9.154;2022-07-06T12:52:16;23.20;78.60
25342;DHT22;13298;48.792;9.154;2022-07-06T12:57:17;23.10;79.30
25342;DHT22;13298;48.792;9.154;2022-07-06T12:59:55;23.10;79.90
25342;DHT22;13298;48.792;9.154;2022-07-06T13:02:34;23.10;78.30
25342;DHT22;13298;48.792;9.154;2022-07-06T13:05:06;23.20;80.90
25342;DHT22;13298;48.792;9.154;2022-07-06T13:07:34;23.10;79.20
25342;DHT22;13298;48.792;9.154;2022-07-06T13:10:04;23.10;78.00
25342;DHT22;13298;48.792;9.154;2022-07-06T13:12:31;23.20;78.80
25342;DHT22;13298;48.792;9.154;2022-07-06T13:14:57;23.30;78.90
25342;DHT22;13298;48.792;9.154;2022-07-06T13:17:23;23.50;78.00
25342;DHT22;13298;48.792;9.154;2022-07-06T13:19:49;23.60;77.60
25342;DHT22;13298;48.792;9.154;2022-07-06T13:22:15;23.70;75.50
25342;DHT22;13298;48.792;9.154;2022-07-06T13:24:41;23.70;75.90
25342;DHT22;13298;48.792;9.154;2022-07-06T13:27:07;23.60;78.60
25342;DHT22;13298;48.792;9.154;2022-07-06T13:29:33;23.60;78.40
25342;DHT22;13298;48.792;9.154;2022-07-06T13:31:59;23.70;76.20
25342;DHT22;13298;48.792;9.154;2022-07-06T13:34:25;23.60;76.40
25342;DHT22;13298;48.792;9.154;2022-07-06T13:36:51;23.70;76.90
25342;DHT22;13298;48.792;9.154;2022-07-06T13:39:18;23.60;75.60
25342;DHT22;13298;48.792;9.154;2022-07-06T13:41:44;23.70;75.20
25342;DHT22;13298;48.792;9.154;2022-07-06T13:44:10;23.90;75.40
25342;DHT22;13298;48.792;9.154;2022-07-06T13:46:37;24.00;75.30
25342;DHT22;13298;48.792;9.154;2022-07-06T13:49:04;24.10;76.20
25342;DHT22;13298;48.792;9.154;2022-07-06T13:51:30;24.30;77.40
25342;DHT22;13298;48.792;9.154;2022-07-06T13:53:58;24.40;74.80
25342;DHT22;13298;48.792;9.154;2022-07-06T13:56:25;24.50;76.70
25342;DHT22;13298;48.792;9.154;2022-07-06T13:58:51;24.60;74.20
25342;DHT22;13298;48.792;9.154;2022-07-06T14:01:17;24.60;74.50
25342;DHT22;13298;48.792;9.154;2022-07-06T14:03:43;24.70;72.10
25342;DHT22;13298;48.792;9.154;2022-07-06T14:06:09;24.70;73.40
25342;DHT22;13298;48.792;9.154;2022-07-06T14:08:37;24.80;72.30
25342;DHT22;13298;48.792;9.154;2022-07-06T14:11:04;24.80;72.40
25342;DHT22;13298;48.792;9.154;2022-07-06T14:13:31;24.80;73.70
25342;DHT22;13298;48.792;9.154;2022-07-06T14:15:57;24.90;71.50
25342;DHT22;13298;48.792;9.154;2022-07-06T14:18:23;24.90;72.70
25342;DHT22;13298;48.792;9.154;2022-07-06T14:20:50;24.90;69.60
25342;DHT22;13298;48.792;9.154;2022-07-06T14:23:18;24.90;69.80
25342;DHT22;13298;48.792;9.154;2022-07-06T14:25:45;24.70;71.20
25342;DHT22;13298;48.792;9.154;2022-07-06T14:28:11;24.60;72.10
25342;DHT22;13298;48.792;9.154;2022-07-06T14:30:41;24.60;72.60
25342;DHT22;13298;48.792;9.154;2022-07-06T14:33:09;24.60;72.40
25342;DHT22;13298;48.792;9.154;2022-07-06T14:35:35;24.70;71.40
25342;DHT22;13298;48.792;9.154;2022-07-06T14:38:03;24.80;70.20
25342;DHT22;13298;48.792;9.154;2022-07-06T14:40:30;24.90;71.70
25342;DHT22;13298;48.792;9.154;2022-07-06T14:42:56;24.90;69.80
25342;DHT22;13298;48.792;9.154;2022-07-06T14:45:22;24.90;70.40
25342;DHT22;13298;48.792;9.154;2022-07-06T14:47:48;24.90;70.40
25342;DHT22;13298;48.792;9.154;2022-07-06T14:50:13;25.00;70.80
25342;DHT22;13298;48.792;9.154;2022-07-06T14:52:39;25.00;68.50
25342;DHT22;13298;48.792;9.154;2022-07-06T14:55:05;25.00;68.40
25342;DHT22;13298;48.792;9.154;2022-07-06T14:57:31;25.10;70.20
25342;DHT22;13298;48.792;9.154;2022-07-06T14:59:57;25.10;68.70
25342;DHT22;13298;48.792;9.154;2022-07-06T15:02:23;25.40;68.90
25342;DHT22;13298;48.792;9.154;2022-07-06T15:04:48;25.40;69.10
25342;DHT22;13298;48.792;9.154;2022-07-06T15:07:14;25.50;67.40
25342;DHT22;13298;48.792;9.154;2022-07-06T15:09:40;25.70;67.60
25342;DHT22;13298;48.792;9.154;2022-07-06T15:12:06;25.80;66.30
25342;DHT22;13298;48.792;9.154;2022-07-06T15:14:32;25.60;66.50
25342;DHT22;13298;48.792;9.154;2022-07-06T15:16:58;25.40;64.20
25342;DHT22;13298;48.792;9.154;2022-07-06T15:19:24;25.30;67.70
25342;DHT22;13298;48.792;9.154;2022-07-06T15:21:50;25.30;66.70
25342;DHT22;13298;48.792;9.154;2022-07-06T15:24:16;25.40;67.60
25342;DHT22;13298;48.792;9.154;2022-07-06T15:26:42;25.50;66.20
25342;DHT22;13298;48.792;9.154;2022-07-06T15:29:08;25.40;67.20
25342;DHT22;13298;48.792;9.154;2022-07-06T15:31:33;25.10;66.40
25342;DHT22;13298;48.792;9.154;2022-07-06T15:33:59;24.80;66.30
25342;DHT22;13298;48.792;9.154;2022-07-06T15:36:25;24.50;67.20
25342;DHT22;13298;48.792;9.154;2022-07-06T15:38:51;24.30;67.90